Time;durP1;ratioP1;P1;durP2;ratioP2;P2;SDS_P1;SDS_P2;PMS_P1;PMS_P2;Temp;Humidity;BMP_temperature;BMP_pressure;BME280_temperature;BME280_humidity;BME280_pressure;Samples;Min_cycle;Max_cycle;Signal;HPM_P1;HPM_P2
2022/06/15 00:01:32;;;;;;;;;37.50;29.50;;;;;;;;4939885;29;8846;-73
2022/06/15 00:04:02;;;;;;;;;37.00;32.67;;;;;;;;4940203;29;8758;-70
2022/06/15 00:06:29;;;;;;;;;38.50;33.00;;;;;;;;4939252;28;9987;-60
2022/06/15 00:08:57;;;;;;;;;35.50;31.50;;;;;;;;4938267;28;8809;-67
2022/06/15 00:11:28;;;;;;;;;38.25;32.50;;;;;;;;4939365;28;8773;-72
2022/06/15 00:13:55;;;;;;;;;42.50;32.50;;;;;;;;4939635;28;8828;-71
2022/06/15 00:16:22;;;;;;;;;37.25;32.50;;;;;;;;4938286;29;8790;-73
2022/06/15 00:18:49;;;;;;;;;41.50;32.75;;;;;;;;4938387;29;8817;-63
2022/06/15 00:21:16;;;;;;;;;48.25;34.00;;;;;;;;4939540;28;8828;-59
2022/06/15 00:23:43;;;;;;;;;46.50;33.50;;;;;;;;4939291;28;8777;-73
2022/06/15 00:26:09;;;;;;;;;44.25;36.25;;;;;;;;4938211;29;8789;-73
2022/06/15 00:28:36;;;;;;;;;47.00;35.00;;;;;;;;4939134;28;8793;-72
2022/06/15 00:31:03;;;;;;;;;45.00;36.00;;;;;;;;4942562;29;8804;-73
2022/06/15 00:33:29;;;;;;;;;46.00;37.50;;;;;;;;4941411;28;9374;-60
2022/06/15 00:36:00;;;;;;;;;42.25;33.25;;;;;;;;4942955;28;8797;-62
2022/06/15 00:38:33;;;;;;;;;36.00;31.25;;;;;;;;4941692;28;8833;-65
2022/06/15 00:41:00;;;;;;;;;42.50;36.00;;;;;;;;4943072;28;8777;-68
2022/06/15 00:43:32;;;;;;;;;40.50;33.75;;;;;;;;4942283;28;8786;-65
2022/06/15 00:45:59;;;;;;;;;43.25;33.50;;;;;;;;4942746;29;8785;-73
2022/06/15 00:48:26;;;;;;;;;35.00;31.25;;;;;;;;4940810;28;8875;-58
2022/06/15 00:50:52;;;;;;;;;44.25;33.75;;;;;;;;4957603;28;8863;-72
2022/06/15 00:53:19;;;;;;;;;42.00;35.50;;;;;;;;4941595;28;8801;-70
2022/06/15 00:55:46;;;;;;;;;41.00;33.00;;;;;;;;4948836;28;8838;-62
2022/06/15 00:58:14;;;;;;;;;37.25;33.00;;;;;;;;4979506;28;8850;-70
2022/06/15 01:00:41;;;;;;;;;27.00;26.00;;;;;;;;4980287;28;8775;-69
2022/06/15 01:03:10;;;;;;;;;36.00;29.75;;;;;;;;4963146;28;9129;-59
2022/06/15 01:05:37;;;;;;;;;31.25;27.50;;;;;;;;4963032;28;8811;-63
2022/06/15 01:08:04;;;;;;;;;36.00;31.25;;;;;;;;4981545;28;8826;-68
2022/06/15 01:10:30;;;;;;;;;37.50;30.50;;;;;;;;4980776;28;8826;-64
2022/06/15 01:13:00;;;;;;;;;40.25;30.25;;;;;;;;4981677;28;8830;-63
2022/06/15 01:15:29;;;;;;;;;29.25;27.50;;;;;;;;4981322;28;8780;-67
2022/06/15 01:17:56;;;;;;;;;38.00;31.00;;;;;;;;4981776;28;8852;-64
2022/06/15 01:20:36;;;;;;;;;38.00;29.75;;;;;;;;4980961;28;8763;-60
2022/06/15 01:23:02;;;;;;;;;34.50;30.00;;;;;;;;4980839;28;8772;-69
2022/06/15 01:25:50;;;;;;;;;36.25;29.50;;;;;;;;4962333;28;8896;-71
2022/06/15 01:28:35;;;;;;;;;37.25;31.50;;;;;;;;4979507;28;8888;-70
2022/06/15 01:31:03;;;;;;;;;31.75;28.75;;;;;;;;4981416;28;8778;-48
2022/06/15 01:33:36;;;;;;;;;33.25;28.75;;;;;;;;4963394;28;8822;-60
2022/06/15 01:36:14;;;;;;;;;34.25;28.75;;;;;;;;4981051;28;8764;-66
2022/06/15 01:38:43;;;;;;;;;33.00;30.00;;;;;;;;4963980;28;8862;-80
2022/06/15 01:41:13;;;;;;;;;34.25;27.75;;;;;;;;4963031;28;9341;-71
2022/06/15 01:43:41;;;;;;;;;33.50;29.25;;;;;;;;4980180;28;8732;-64
2022/06/15 01:46:08;;;;;;;;;28.00;23.75;;;;;;;;4980484;28;9456;-72
2022/06/15 01:48:35;;;;;;;;;33.00;25.75;;;;;;;;4979458;28;8748;-72
2022/06/15 01:51:05;;;;;;;;;39.75;30.00;;;;;;;;4980077;28;8814;-59
2022/06/15 01:53:53;;;;;;;;;29.40;27.00;;;;;;;;4977942;28;8791;-55
2022/06/15 01:56:23;;;;;;;;;31.00;25.80;;;;;;;;4978956;28;8791;-74
2022/06/15 01:58:52;;;;;;;;;31.75;28.50;;;;;;;;4978416;28;8934;-68
2022/06/15 02:01:26;;;;;;;;;32.00;30.50;;;;;;;;4958859;28;8809;-81
2022/06/15 02:03:59;;;;;;;;;29.75;24.25;;;;;;;;4958077;28;9614;-72
2022/06/15 02:06:33;;;;;;;;;32.75;27.75;;;;;;;;4958928;28;8801;-69
2022/06/15 02:09:02;;;;;;;;;30.25;27.75;;;;;;;;4958963;28;8804;-74
2022/06/15 02:11:31;;;;;;;;;28.00;24.50;;;;;;;;4957893;28;8800;-62
2022/06/15 02:14:02;;;;;;;;;28.75;25.25;;;;;;;;4959197;28;8777;-66
2022/06/15 02:16:32;;;;;;;;;31.00;25.75;;;;;;;;4959801;28;8757;-72
2022/06/15 02:18:59;;;;;;;;;26.25;22.25;;;;;;;;4960312;28;8790;-59
2022/06/15 02:21:26;;;;;;;;;28.75;24.25;;;;;;;;4958976;28;8827;-73
2022/06/15 02:23:55;;;;;;;;;25.50;21.50;;;;;;;;4958995;28;8802;-76
2022/06/15 02:26:22;;;;;;;;;22.25;18.00;;;;;;;;4926179;28;8785;-69
2022/06/15 02:28:51;;;;;;;;;32.25;24.50;;;;;;;;4942126;28;8786;-69
2022/06/15 02:31:18;;;;;;;;;26.75;25.25;;;;;;;;4959500;28;8764;-45
2022/06/15 02:33:53;;;;;;;;;29.75;27.00;;;;;;;;4961057;28;8787;-70
2022/06/15 02:36:19;;;;;;;;;26.75;23.00;;;;;;;;4977349;28;9511;-67
2022/06/15 02:38:49;;;;;;;;;25.50;24.50;;;;;;;;4978332;28;8939;-62
2022/06/15 02:41:19;;;;;;;;;30.75;26.25;;;;;;;;4962409;28;8775;-58
2022/06/15 02:43:46;;;;;;;;;25.50;23.00;;;;;;;;4963078;28;9436;-61
2022/06/15 02:46:13;;;;;;;;;27.50;25.25;;;;;;;;4978793;28;8882;-72
2022/06/15 02:48:40;;;;;;;;;25.75;25.50;;;;;;;;4978675;28;8833;-71
2022/06/15 02:51:06;;;;;;;;;36.25;28.25;;;;;;;;4979595;28;8843;-56
2022/06/15 02:53:33;;;;;;;;;31.00;29.25;;;;;;;;4960845;28;8763;-57
2022/06/15 02:55:59;;;;;;;;;34.00;25.00;;;;;;;;4962778;28;8818;-69
2022/06/15 02:58:30;;;;;;;;;36.00;31.75;;;;;;;;4962522;28;8819;-60
2022/06/15 03:00:57;;;;;;;;;34.25;29.50;;;;;;;;4949504;28;8791;-73
2022/06/15 03:03:24;;;;;;;;;29.00;27.50;;;;;;;;4960557;28;8813;-74
2022/06/15 03:05:51;;;;;;;;;29.50;25.75;;;;;;;;4960977;28;8803;-70
2022/06/15 03:08:18;;;;;;;;;26.75;25.00;;;;;;;;4978423;28;8810;-58
2022/06/15 03:10:44;;;;;;;;;33.25;29.00;;;;;;;;4979013;28;8817;-64
2022/06/15 03:13:11;;;;;;;;;26.25;25.50;;;;;;;;4961605;28;8791;-75
2022/06/15 03:15:38;;;;;;;;;32.50;27.25;;;;;;;;4977637;28;8807;-62
2022/06/15 03:18:05;;;;;;;;;29.50;26.00;;;;;;;;4978404;28;8778;-73
2022/06/15 03:20:31;;;;;;;;;30.50;24.50;;;;;;;;4978015;28;8783;-73
2022/06/15 03:22:58;;;;;;;;;28.50;25.25;;;;;;;;4978320;28;8788;-63
2022/06/15 03:25:25;;;;;;;;;26.75;23.00;;;;;;;;4960424;28;8882;-73
2022/06/15 03:27:52;;;;;;;;;23.00;19.75;;;;;;;;4961935;28;8767;-68
2022/06/15 03:30:19;;;;;;;;;18.00;18.00;;;;;;;;4975128;28;8812;-74
2022/06/15 03:32:46;;;;;;;;;27.50;23.25;;;;;;;;4977380;28;8857;-63
2022/06/15 03:35:12;;;;;;;;;19.75;17.75;;;;;;;;4977935;28;8829;-73
2022/06/15 03:37:39;;;;;;;;;26.40;21.20;;;;;;;;4959033;28;8811;-73
2022/06/15 03:40:10;;;;;;;;;21.75;21.75;;;;;;;;4961032;28;8827;-72
2022/06/15 03:42:40;;;;;;;;;22.25;20.00;;;;;;;;4959811;28;8902;-63
2022/06/15 03:45:07;;;;;;;;;17.60;16.40;;;;;;;;4976332;28;8811;-54
2022/06/15 03:47:34;;;;;;;;;26.00;22.25;;;;;;;;4958889;28;8908;-75
2022/06/15 03:50:00;;;;;;;;;22.50;18.00;;;;;;;;4960480;28;8810;-61
2022/06/15 03:52:27;;;;;;;;;18.75;17.50;;;;;;;;4977609;28;8771;-71
2022/06/15 03:54:53;;;;;;;;;22.00;19.25;;;;;;;;4978345;28;8760;-70
2022/06/15 03:57:20;;;;;;;;;22.75;22.00;;;;;;;;4976636;28;8882;-71
2022/06/15 03:59:47;;;;;;;;;20.25;18.00;;;;;;;;4977006;28;9444;-64
2022/06/15 04:02:14;;;;;;;;;24.40;21.00;;;;;;;;4976363;28;8893;-65
2022/06/15 04:04:40;;;;;;;;;19.50;15.75;;;;;;;;4961875;28;9512;-74
2022/06/15 04:08:34;;;;;;;;;27.00;18.75;;;;;;;;4982087;28;8752;-69
2022/06/15 04:09:56;;;;;;;;;15.50;14.00;;;;;;;;4982072;28;8799;-73
2022/06/15 04:12:23;;;;;;;;;16.25;15.00;;;;;;;;4980948;28;8764;-63
2022/06/15 04:14:50;;;;;;;;;18.00;17.00;;;;;;;;4981435;28;8790;-72
2022/06/15 04:17:18;;;;;;;;;21.00;17.75;;;;;;;;4981474;28;8799;-71
2022/06/15 04:20:31;;;;;;;;;17.25;17.25;;;;;;;;4981570;28;8818;-72
2022/06/15 04:22:31;;;;;;;;;24.75;19.75;;;;;;;;4980139;28;8799;-76
2022/06/15 04:24:57;;;;;;;;;23.25;21.00;;;;;;;;4980843;28;8759;-75
2022/06/15 04:27:24;;;;;;;;;23.25;20.00;;;;;;;;4979972;28;8786;-64
2022/06/15 04:29:51;;;;;;;;;21.00;17.00;;;;;;;;4980445;28;8850;-64
2022/06/15 04:32:17;;;;;;;;;19.75;16.00;;;;;;;;4981005;28;8803;-66
2022/06/15 04:34:44;;;;;;;;;21.25;18.00;;;;;;;;4981256;28;8842;-72
2022/06/15 04:37:11;;;;;;;;;19.50;17.75;;;;;;;;4964587;28;8783;-68
2022/06/15 04:39:37;;;;;;;;;20.00;18.00;;;;;;;;4964046;28;8831;-49
2022/06/15 04:42:04;;;;;;;;;20.00;16.50;;;;;;;;4980389;28;8767;-70
2022/06/15 04:44:31;;;;;;;;;19.00;17.00;;;;;;;;4979881;28;8808;-60
2022/06/15 04:46:58;;;;;;;;;17.20;16.40;;;;;;;;4980941;28;8786;-60
2022/06/15 04:49:24;;;;;;;;;19.00;16.25;;;;;;;;4980061;28;8814;-47
2022/06/15 04:51:51;;;;;;;;;18.00;17.00;;;;;;;;4979104;28;8783;-48
2022/06/15 04:54:18;;;;;;;;;19.20;17.20;;;;;;;;4978063;28;8957;-59
2022/06/15 04:56:44;;;;;;;;;23.25;20.50;;;;;;;;4978398;28;8807;-65
2022/06/15 04:59:11;;;;;;;;;20.50;20.50;;;;;;;;4960941;28;8795;-45
2022/06/15 05:01:38;;;;;;;;;16.20;16.20;;;;;;;;4978010;28;8818;-69
2022/06/15 05:04:05;;;;;;;;;23.75;20.75;;;;;;;;4978290;28;8764;-47
2022/06/15 05:06:33;;;;;;;;;21.75;19.75;;;;;;;;4978082;28;8834;-70
2022/06/15 05:08:59;;;;;;;;;20.00;18.25;;;;;;;;4976476;28;8787;-63
2022/06/15 05:11:29;;;;;;;;;18.25;15.75;;;;;;;;4969721;28;8815;-60
2022/06/15 05:13:55;;;;;;;;;17.25;15.00;;;;;;;;4977449;28;8803;-47
2022/06/15 05:16:22;;;;;;;;;20.00;16.00;;;;;;;;4977190;28;8815;-46
2022/06/15 05:18:49;;;;;;;;;17.25;14.75;;;;;;;;4977444;28;9052;-63
2022/06/15 05:21:16;;;;;;;;;13.00;12.25;;;;;;;;4976698;28;8787;-45
2022/06/15 05:23:42;;;;;;;;;21.50;15.00;;;;;;;;4977750;28;8783;-70
2022/06/15 05:26:09;;;;;;;;;19.75;16.50;;;;;;;;4960307;28;8771;-72
2022/06/15 05:28:35;;;;;;;;;16.50;16.50;;;;;;;;4977118;28;8796;-60
2022/06/15 05:31:05;;;;;;;;;19.20;15.20;;;;;;;;4960740;28;8772;-68
2022/06/15 05:33:33;;;;;;;;;22.40;17.00;;;;;;;;4976983;28;8783;-58
2022/06/15 05:36:07;;;;;;;;;18.80;15.40;;;;;;;;4977109;28;8767;-64
2022/06/15 05:38:35;;;;;;;;;20.00;17.00;;;;;;;;4975662;28;8826;-71
2022/06/15 05:41:02;;;;;;;;;20.00;17.00;;;;;;;;4977337;28;9336;-69
2022/06/15 05:43:30;;;;;;;;;20.00;17.25;;;;;;;;4977025;28;8756;-48
2022/06/15 05:45:56;;;;;;;;;15.25;14.00;;;;;;;;4977508;28;9440;-53
2022/06/15 05:48:23;;;;;;;;;17.25;14.00;;;;;;;;4976522;28;8788;-50
2022/06/15 05:50:50;;;;;;;;;17.00;15.50;;;;;;;;4959961;28;8767;-70
2022/06/15 05:53:16;;;;;;;;;14.25;11.50;;;;;;;;4959610;28;8767;-72
2022/06/15 05:55:43;;;;;;;;;16.50;14.00;;;;;;;;4959661;28;10016;-72
2022/06/15 05:58:10;;;;;;;;;15.50;12.75;;;;;;;;4960220;28;8764;-69
2022/06/15 06:00:38;;;;;;;;;16.80;15.80;;;;;;;;4976436;28;8896;-71
2022/06/15 06:03:05;;;;;;;;;14.40;13.40;;;;;;;;4977157;28;8811;-71
2022/06/15 06:05:31;;;;;;;;;13.50;10.00;;;;;;;;4976504;28;8783;-55
2022/06/15 06:07:58;;;;;;;;;23.75;15.75;;;;;;;;4976068;28;8799;-52
2022/06/15 06:10:25;;;;;;;;;19.75;16.75;;;;;;;;4978015;28;9505;-56
2022/06/15 06:12:51;;;;;;;;;17.00;13.50;;;;;;;;4962441;28;9440;-72
2022/06/15 06:15:18;;;;;;;;;16.50;14.50;;;;;;;;4958296;28;8770;-69
2022/06/15 06:17:45;;;;;;;;;17.50;15.50;;;;;;;;4974664;28;8824;-57
2022/06/15 06:20:11;;;;;;;;;15.25;12.75;;;;;;;;4959714;28;8902;-65
2022/06/15 06:22:38;;;;;;;;;16.50;14.75;;;;;;;;4959188;28;8892;-63
2022/06/15 06:25:05;;;;;;;;;14.25;11.75;;;;;;;;4975258;28;8750;-69
2022/06/15 06:27:32;;;;;;;;;16.00;12.25;;;;;;;;4959688;28;8844;-58
2022/06/15 06:29:58;;;;;;;;;17.60;15.00;;;;;;;;4967266;28;8897;-67
2022/06/15 06:32:25;;;;;;;;;19.40;16.00;;;;;;;;4979048;28;8775;-71
2022/06/15 06:34:52;;;;;;;;;16.50;14.75;;;;;;;;4979439;28;8775;-66
2022/06/15 06:37:19;;;;;;;;;15.25;13.50;;;;;;;;4979908;28;8786;-67
2022/06/15 06:39:45;;;;;;;;;15.00;11.50;;;;;;;;4979039;28;8823;-68
2022/06/15 06:42:12;;;;;;;;;16.00;14.75;;;;;;;;4979277;28;8798;-65
2022/06/15 06:44:39;;;;;;;;;15.75;12.00;;;;;;;;4979752;28;8894;-64
2022/06/15 06:47:07;;;;;;;;;16.75;14.50;;;;;;;;4980184;28;8826;-71
2022/06/15 06:49:34;;;;;;;;;14.00;13.50;;;;;;;;4961896;28;8779;-68
2022/06/15 06:52:01;;;;;;;;;20.25;17.50;;;;;;;;4962563;28;8786;-64
2022/06/15 06:54:29;;;;;;;;;13.50;9.75;;;;;;;;4978884;28;8791;-68
2022/06/15 06:56:56;;;;;;;;;14.75;13.00;;;;;;;;4966152;28;8835;-67
2022/06/15 06:59:23;;;;;;;;;18.75;12.00;;;;;;;;4959115;28;8905;-69
2022/06/15 07:01:50;;;;;;;;;19.25;15.50;;;;;;;;4973932;28;8782;-71
2022/06/15 07:04:17;;;;;;;;;18.25;15.50;;;;;;;;4959902;28;8782;-65
2022/06/15 07:06:44;;;;;;;;;14.50;14.00;;;;;;;;4959886;28;8797;-69
2022/06/15 07:09:10;;;;;;;;;12.50;12.50;;;;;;;;4960178;28;8794;-64
2022/06/15 07:11:37;;;;;;;;;20.40;17.40;;;;;;;;4959468;28;8885;-68
2022/06/15 07:14:06;;;;;;;;;12.00;9.00;;;;;;;;4958223;28;8775;-72
2022/06/15 07:16:33;;;;;;;;;15.75;12.00;;;;;;;;4958725;28;8793;-71
2022/06/15 07:19:00;;;;;;;;;15.75;14.75;;;;;;;;4959677;28;8933;-71
2022/06/15 07:21:27;;;;;;;;;19.25;15.25;;;;;;;;4959009;28;8853;-56
2022/06/15 07:23:55;;;;;;;;;14.50;14.50;;;;;;;;4959450;28;8813;-68
2022/06/15 07:26:23;;;;;;;;;14.00;14.00;;;;;;;;4958627;28;8999;-58
2022/06/15 07:28:50;;;;;;;;;17.00;12.40;;;;;;;;4957445;28;9513;-71
2022/06/15 07:31:20;;;;;;;;;13.60;13.40;;;;;;;;4959111;28;8893;-64
2022/06/15 07:33:47;;;;;;;;;15.80;15.20;;;;;;;;4959013;28;8790;-68
2022/06/15 07:36:14;;;;;;;;;16.75;15.25;;;;;;;;4957622;28;8806;-71
2022/06/15 07:38:40;;;;;;;;;17.50;17.00;;;;;;;;4958255;28;8827;-69
2022/06/15 07:41:07;;;;;;;;;19.25;18.25;;;;;;;;4957597;28;8793;-51
2022/06/15 07:43:34;;;;;;;;;25.50;20.00;;;;;;;;4958902;28;8849;-71
2022/06/15 07:46:00;;;;;;;;;24.00;21.25;;;;;;;;4959421;28;8764;-51
2022/06/15 07:51:30;;;;;;;;;22.75;21.50;;;;;;;;4959153;28;8794;-71
2022/06/15 07:53:57;;;;;;;;;23.50;21.50;;;;;;;;4958947;28;8782;-72
2022/06/15 07:56:24;;;;;;;;;23.50;19.25;;;;;;;;4953988;28;8868;-70
2022/06/15 07:58:51;;;;;;;;;21.25;17.00;;;;;;;;4938063;29;8770;-71
2022/06/15 08:01:17;;;;;;;;;19.50;15.50;;;;;;;;4939688;29;8793;-69
2022/06/15 08:03:44;;;;;;;;;18.50;17.00;;;;;;;;4939724;28;8777;-59
2022/06/15 08:06:11;;;;;;;;;20.50;19.75;;;;;;;;4939486;29;8924;-72
2022/06/15 08:08:37;;;;;;;;;20.20;17.20;;;;;;;;4953937;28;8821;-59
2022/06/15 08:11:04;;;;;;;;;20.25;17.75;;;;;;;;4939253;29;8907;-70
2022/06/15 08:13:31;;;;;;;;;20.25;17.50;;;;;;;;4939249;28;8769;-70
2022/06/15 08:15:57;;;;;;;;;22.20;19.00;;;;;;;;4939768;29;9007;-52
2022/06/15 08:18:29;;;;;;;;;26.50;20.00;;;;;;;;4953258;28;8829;-70
2022/06/15 08:20:57;;;;;;;;;25.00;20.25;;;;;;;;4937852;29;8801;-54
2022/06/15 08:23:24;;;;;;;;;21.50;18.50;;;;;;;;4939073;28;8774;-65
2022/06/15 08:25:51;;;;;;;;;21.50;20.00;;;;;;;;4953969;28;8769;-72
2022/06/15 08:28:19;;;;;;;;;17.25;16.00;;;;;;;;4953877;28;8770;-70
2022/06/15 08:30:46;;;;;;;;;19.50;19.50;;;;;;;;4953544;29;8804;-69
2022/06/15 08:33:12;;;;;;;;;18.50;17.50;;;;;;;;4939095;29;8883;-51
2022/06/15 08:35:39;;;;;;;;;20.00;17.80;;;;;;;;4939289;29;8797;-71
2022/06/15 08:38:09;;;;;;;;;18.25;17.25;;;;;;;;4937896;29;8770;-69
2022/06/15 08:40:56;;;;;;;;;23.75;19.25;;;;;;;;4938929;29;8785;-54
2022/06/15 08:43:27;;;;;;;;;23.25;21.00;;;;;;;;4937890;28;8861;-65
2022/06/15 08:45:54;;;;;;;;;23.25;20.00;;;;;;;;4937751;29;8810;-71
2022/06/15 08:48:26;;;;;;;;;18.25;16.50;;;;;;;;4938652;29;8798;-60
2022/06/15 08:50:56;;;;;;;;;22.00;19.25;;;;;;;;4954769;28;8801;-71
2022/06/15 08:53:28;;;;;;;;;24.00;21.25;;;;;;;;4942428;28;8813;-48
2022/06/15 08:56:03;;;;;;;;;19.50;17.25;;;;;;;;4950286;28;8850;-71
2022/06/15 08:58:41;;;;;;;;;22.00;19.00;;;;;;;;4963429;28;8941;-71
2022/06/15 09:01:15;;;;;;;;;25.50;20.50;;;;;;;;4981123;28;8756;-52
2022/06/15 09:03:51;;;;;;;;;24.00;23.25;;;;;;;;4979503;28;8849;-52
2022/06/15 09:06:37;;;;;;;;;20.25;16.25;;;;;;;;4962962;28;8791;-61
2022/06/15 09:09:06;;;;;;;;;27.75;23.75;;;;;;;;4962965;28;9443;-51
2022/06/15 09:11:43;;;;;;;;;30.75;23.50;;;;;;;;4980149;28;9412;-70
2022/06/15 09:14:16;;;;;;;;;25.75;20.50;;;;;;;;4980616;28;8779;-72
2022/06/15 09:17:01;;;;;;;;;23.00;21.50;;;;;;;;4980215;28;8748;-72
2022/06/15 09:19:30;;;;;;;;;25.00;20.75;;;;;;;;4979793;28;9460;-71
2022/06/15 09:22:09;;;;;;;;;24.00;19.25;;;;;;;;4964046;28;8760;-72
2022/06/15 09:24:40;;;;;;;;;26.75;22.50;;;;;;;;4962544;28;8792;-69
2022/06/15 09:27:11;;;;;;;;;27.50;25.75;;;;;;;;4980117;28;8771;-66
2022/06/15 09:29:57;;;;;;;;;26.50;24.00;;;;;;;;4979909;28;8822;-71
2022/06/15 09:32:42;;;;;;;;;30.00;25.25;;;;;;;;4979651;28;8771;-62
2022/06/15 09:35:21;;;;;;;;;22.75;19.50;;;;;;;;4980157;28;8768;-48
2022/06/15 09:37:49;;;;;;;;;25.50;23.25;;;;;;;;4979913;28;8782;-55
2022/06/15 09:40:16;;;;;;;;;21.50;19.50;;;;;;;;4979492;28;8811;-61
2022/06/15 09:42:42;;;;;;;;;24.00;22.75;;;;;;;;4980157;28;8817;-54
2022/06/15 09:45:12;;;;;;;;;29.00;24.50;;;;;;;;4980088;28;8771;-69
2022/06/15 09:47:58;;;;;;;;;24.75;23.50;;;;;;;;4963104;28;9095;-69
2022/06/15 09:50:27;;;;;;;;;23.75;22.00;;;;;;;;4980035;28;8763;-72
2022/06/15 09:53:12;;;;;;;;;30.75;25.00;;;;;;;;4962680;28;8775;-46
2022/06/15 09:55:39;;;;;;;;;20.50;19.50;;;;;;;;4979780;28;8764;-69
2022/06/15 09:58:06;;;;;;;;;28.50;22.25;;;;;;;;4980736;28;8860;-58
2022/06/15 10:00:32;;;;;;;;;29.25;24.50;;;;;;;;4979619;28;9413;-67
2022/06/15 10:03:00;;;;;;;;;31.75;28.00;;;;;;;;4978355;28;8784;-52
2022/06/15 10:05:34;;;;;;;;;29.25;27.00;;;;;;;;4978784;28;8859;-59
2022/06/15 10:08:02;;;;;;;;;29.00;25.75;;;;;;;;4978689;28;8791;-72
2022/06/15 10:10:33;;;;;;;;;20.50;19.25;;;;;;;;4978797;28;12161;-57
2022/06/15 10:13:20;;;;;;;;;27.25;23.25;;;;;;;;4979639;28;8752;-72
2022/06/15 10:15:53;;;;;;;;;34.25;30.25;;;;;;;;4966730;28;8794;-69
2022/06/15 10:18:28;;;;;;;;;38.25;32.00;;;;;;;;4979753;28;8923;-69
2022/06/15 10:20:57;;;;;;;;;31.75;23.00;;;;;;;;4979917;28;9480;-60
2022/06/15 10:23:28;;;;;;;;;33.25;30.25;;;;;;;;4962275;28;8775;-71
2022/06/15 10:25:55;;;;;;;;;40.00;32.25;;;;;;;;4962368;28;8782;-72
2022/06/15 10:28:26;;;;;;;;;44.25;34.50;;;;;;;;4962962;28;8752;-67
2022/06/15 10:30:58;;;;;;;;;40.75;33.50;;;;;;;;4962324;28;8788;-62
2022/06/15 10:33:24;;;;;;;;;37.75;32.50;;;;;;;;4979151;28;8787;-65
2022/06/15 10:35:54;;;;;;;;;43.00;33.00;;;;;;;;4979381;28;8846;-71
2022/06/15 10:38:21;;;;;;;;;41.75;33.50;;;;;;;;4977920;28;8763;-70
2022/06/15 10:43:45;;;;;;;;;34.00;31.00;;;;;;;;4978943;28;8902;-59
2022/06/15 10:46:12;;;;;;;;;25.50;19.25;;;;;;;;4978440;28;8874;-64
2022/06/15 10:48:39;;;;;;;;;29.75;27.00;;;;;;;;4961670;28;9555;-69
2022/06/15 10:51:16;;;;;;;;;27.50;24.75;;;;;;;;4961788;28;8743;-72
2022/06/15 10:53:50;;;;;;;;;33.00;24.75;;;;;;;;4961694;28;8958;-72
2022/06/15 11:02:20;;;;;;;;;36.25;29.25;;;;;;;;4978866;28;8795;-68
2022/06/15 11:04:47;;;;;;;;;28.50;24.75;;;;;;;;4977824;28;8772;-67
2022/06/15 11:07:14;;;;;;;;;34.00;30.25;;;;;;;;4979687;28;8784;-68
2022/06/15 11:09:52;;;;;;;;;26.00;23.75;;;;;;;;4978925;28;8768;-70
2022/06/15 11:12:25;;;;;;;;;35.50;28.75;;;;;;;;4978890;28;8854;-52
2022/06/15 11:14:54;;;;;;;;;30.75;27.75;;;;;;;;4977967;28;8890;-70
2022/06/15 11:20:19;;;;;;;;;34.75;28.00;;;;;;;;4978170;28;8791;-68
2022/06/15 11:22:47;;;;;;;;;29.25;24.75;;;;;;;;4978540;28;8786;-63
2022/06/15 11:25:14;;;;;;;;;35.75;29.75;;;;;;;;4962185;28;8771;-72
2022/06/15 11:27:48;;;;;;;;;31.25;26.25;;;;;;;;4961524;28;8854;-71
2022/06/15 11:30:23;;;;;;;;;30.75;26.50;;;;;;;;4978325;28;8810;-61
2022/06/15 11:32:57;;;;;;;;;33.50;29.25;;;;;;;;4977310;28;8776;-68
2022/06/15 11:35:28;;;;;;;;;18.50;16.25;;;;;;;;4978313;28;8829;-71
2022/06/15 11:38:12;;;;;;;;;40.75;32.50;;;;;;;;4978180;28;8860;-69
2022/06/15 11:40:42;;;;;;;;;32.75;27.75;;;;;;;;4978265;28;9832;-62
2022/06/15 11:43:14;;;;;;;;;38.75;31.75;;;;;;;;4978660;28;8736;-71
2022/06/15 11:45:52;;;;;;;;;40.00;29.50;;;;;;;;4978071;28;8776;-71
2022/06/15 11:48:41;;;;;;;;;41.25;33.25;;;;;;;;4961119;28;8814;-62
2022/06/15 11:51:12;;;;;;;;;32.50;29.50;;;;;;;;4968358;28;8764;-64
2022/06/15 11:53:43;;;;;;;;;34.00;27.75;;;;;;;;4960793;28;8877;-70
2022/06/15 11:56:13;;;;;;;;;32.50;27.75;;;;;;;;4954206;28;8905;-69
2022/06/15 11:58:43;;;;;;;;;28.75;26.00;;;;;;;;4938111;29;9083;-59
2022/06/15 12:01:16;;;;;;;;;32.25;30.75;;;;;;;;4940016;28;8774;-71
2022/06/15 12:04:01;;;;;;;;;30.25;25.75;;;;;;;;4938071;29;8792;-64
2022/06/15 12:06:50;;;;;;;;;22.75;20.75;;;;;;;;4939497;28;9436;-69
2022/06/15 12:09:29;;;;;;;;;27.25;24.25;;;;;;;;4933350;29;8781;-65
2022/06/15 12:15:14;;;;;;;;;24.25;22.00;;;;;;;;4939412;29;8794;-67
2022/06/15 12:18:01;;;;;;;;;32.00;27.25;;;;;;;;4953948;28;8801;-61
2022/06/15 12:20:37;;;;;;;;;31.20;24.20;;;;;;;;4938429;28;8821;-70
2022/06/15 12:23:04;;;;;;;;;8.25;6.75;;;;;;;;4938438;29;8816;-67
2022/06/15 12:25:39;;;;;;;;;33.75;29.25;;;;;;;;4941600;28;8754;-58
2022/06/15 12:28:12;;;;;;;;;33.75;27.00;;;;;;;;4943737;29;8722;-62
2022/06/15 12:30:49;;;;;;;;;26.75;26.25;;;;;;;;4941569;28;9697;-71
2022/06/15 12:33:17;;;;;;;;;34.75;30.50;;;;;;;;4941811;29;8813;-66
2022/06/15 12:35:50;;;;;;;;;21.75;20.25;;;;;;;;4957625;28;8777;-60
2022/06/15 12:38:21;;;;;;;;;35.75;29.00;;;;;;;;4957521;29;8793;-66
2022/06/15 12:41:07;;;;;;;;;23.50;20.50;;;;;;;;4942871;28;9243;-68
2022/06/15 12:43:41;;;;;;;;;20.50;17.25;;;;;;;;4957358;29;8761;-68
2022/06/15 12:46:16;;;;;;;;;23.50;22.75;;;;;;;;4943354;29;8754;-71
2022/06/15 12:48:50;;;;;;;;;22.00;20.25;;;;;;;;4942701;29;9484;-64
2022/06/15 12:51:17;;;;;;;;;15.60;15.20;;;;;;;;4942540;28;8821;-70
2022/06/15 12:53:56;;;;;;;;;14.00;13.60;;;;;;;;4942604;29;9914;-69
2022/06/15 12:56:31;;;;;;;;;14.40;13.40;;;;;;;;4957076;28;9480;-65
2022/06/15 12:59:17;;;;;;;;;13.40;10.40;;;;;;;;4981119;28;8802;-68
2022/06/15 13:01:46;;;;;;;;;10.00;7.40;;;;;;;;4948758;28;8762;-64
2022/06/15 13:04:17;;;;;;;;;12.20;8.80;;;;;;;;4945449;28;8754;-70
2022/06/15 13:06:44;;;;;;;;;10.00;8.80;;;;;;;;4944742;28;8789;-67
2022/06/15 13:09:20;;;;;;;;;9.20;8.00;;;;;;;;4961476;28;8826;-68
2022/06/15 13:12:06;;;;;;;;;9.20;8.40;;;;;;;;4961326;28;8758;-68
2022/06/15 13:14:45;;;;;;;;;9.80;8.40;;;;;;;;4965114;28;8771;-63
2022/06/15 13:17:15;;;;;;;;;9.60;8.20;;;;;;;;4980892;28;8763;-71
2022/06/15 13:19:45;;;;;;;;;14.20;12.60;;;;;;;;4979680;28;8807;-69
2022/06/15 13:22:25;;;;;;;;;7.80;7.80;;;;;;;;4963957;28;8906;-53
2022/06/15 13:24:53;;;;;;;;;14.40;8.40;;;;;;;;4980930;28;8775;-64
2022/06/15 13:27:21;;;;;;;;;11.80;9.20;;;;;;;;4980324;28;8795;-68
2022/06/15 13:29:52;;;;;;;;;11.80;6.60;;;;;;;;4980589;28;8786;-68
2022/06/15 13:32:39;;;;;;;;;9.80;7.20;;;;;;;;4980401;28;8779;-63
2022/06/15 13:35:23;;;;;;;;;8.60;7.80;;;;;;;;4980357;28;8767;-67
2022/06/15 13:37:57;;;;;;;;;8.00;7.60;;;;;;;;4979907;28;8834;-68
2022/06/15 13:40:23;;;;;;;;;9.00;7.80;;;;;;;;4980789;28;8819;-70
2022/06/15 13:42:56;;;;;;;;;8.20;6.80;;;;;;;;4981109;28;8794;-55
2022/06/15 13:45:29;;;;;;;;;12.00;8.20;;;;;;;;4980113;28;8774;-50
2022/06/15 13:48:03;;;;;;;;;10.40;7.40;;;;;;;;4980388;28;8791;-69
2022/06/15 13:50:38;;;;;;;;;8.40;7.20;;;;;;;;4962320;28;8771;-67
2022/06/15 13:53:06;;;;;;;;;9.40;8.00;;;;;;;;4962647;28;8801;-49
2022/06/15 13:55:38;;;;;;;;;7.20;6.20;;;;;;;;4979208;28;8750;-64
2022/06/15 13:58:17;;;;;;;;;8.20;5.80;;;;;;;;4980388;28;8736;-71
2022/06/15 14:00:50;;;;;;;;;11.40;8.00;;;;;;;;4979714;28;8796;-68
2022/06/15 14:03:35;;;;;;;;;10.00;9.00;;;;;;;;4979786;28;9493;-48
2022/06/15 14:06:20;;;;;;;;;11.20;9.80;;;;;;;;4980028;28;8813;-68
2022/06/15 14:09:06;;;;;;;;;12.20;11.00;;;;;;;;4979817;28;8786;-70
2022/06/15 14:11:54;;;;;;;;;8.20;5.40;;;;;;;;4940586;28;8744;-58
2022/06/15 14:14:24;;;;;;;;;9.00;7.40;;;;;;;;4962153;28;8791;-67
2022/06/15 14:16:51;;;;;;;;;7.80;7.00;;;;;;;;4979990;28;8747;-71
2022/06/15 14:19:19;;;;;;;;;9.80;8.00;;;;;;;;4979704;28;8791;-62
2022/06/15 14:21:49;;;;;;;;;8.00;8.00;;;;;;;;4979776;28;8894;-66
2022/06/15 14:24:17;;;;;;;;;7.80;7.40;;;;;;;;4978240;28;8934;-69
2022/06/15 14:26:44;;;;;;;;;9.60;7.20;;;;;;;;4979199;28;8767;-67
2022/06/15 14:29:11;;;;;;;;;9.60;9.60;;;;;;;;4979370;28;8775;-66
2022/06/15 14:31:38;;;;;;;;;8.60;6.40;;;;;;;;4979161;28;8803;-70
2022/06/15 14:34:15;;;;;;;;;5.60;3.00;;;;;;;;4962998;28;8763;-63
2022/06/15 14:36:55;;;;;;;;;7.60;6.00;;;;;;;;4979288;28;8776;-70
2022/06/15 14:39:22;;;;;;;;;7.00;6.20;;;;;;;;4978793;28;8827;-68
2022/06/15 14:41:59;;;;;;;;;5.00;3.80;;;;;;;;4979370;28;8776;-67
2022/06/15 14:44:26;;;;;;;;;7.40;5.20;;;;;;;;4978244;28;8938;-69
2022/06/15 14:46:57;;;;;;;;;11.60;6.80;;;;;;;;4979482;28;9963;-71
2022/06/15 14:49:28;;;;;;;;;8.80;7.00;;;;;;;;4978436;28;8768;-62
2022/06/15 14:52:30;;;;;;;;;8.40;7.00;;;;;;;;4979158;28;9455;-68
2022/06/15 14:55:03;;;;;;;;;6.40;6.40;;;;;;;;4900892;29;8803;-69
2022/06/15 14:57:31;;;;;;;;;7.80;5.00;;;;;;;;4966802;28;8779;-60
2022/06/15 14:59:59;;;;;;;;;5.00;5.00;;;;;;;;4978735;28;8886;-70
2022/06/15 15:02:43;;;;;;;;;5.40;4.40;;;;;;;;4961783;28;8787;-68
2022/06/15 15:05:10;;;;;;;;;7.80;5.00;;;;;;;;4978712;28;8822;-59
2022/06/15 15:10:28;;;;;;;;;6.80;4.60;;;;;;;;4978869;28;8744;-71
2022/06/15 15:12:54;;;;;;;;;5.80;2.00;;;;;;;;4979362;28;8756;-65